Aviation Digital Data Service (ADDS)

Output produced by METARs form (1349 UTC 22 October 2014)
found at http://aviationweather.gov/adds/metars/
 
KPBG 221130Z 2212/2312 34011KT P6SM OVC010 
     TEMPO 2213/2217 -RA OVC008 
     FM221700 34010KT 5SM -RA BR OVC008 
     FM230100 35010KT 3SM RA BR OVC005